Sunday, July 22, 2018, 4:07 PM GMT
Back to Local

CWPE, Point Lepreau, N. B.

Location: , , Canada Lat: 45.067
Local Time: 4:07 PM GMT (16:07 GMT) Lon: -66.467
Time Zone: GMT Elev: 3 ft

Show me the last for .
Show Coded

Time T Td Feel RH Dir Speed Gust Alt SLP Vis Weather Sky Remarks
2018-07-22 15:00 60 59 - 94 60° 7 - - 30.25 0 None
2018-07-22 14:00 61 56 - 85 60° 7 - - 30.24 0 None
2018-07-22 13:00 63 59 - 85 80° 7 - - 30.22 0 None
2018-07-22 12:00 62 60 - 90 70° 5 - - 30.21 0 None
2018-07-22 11:00 58 57 - 98 40° 2 - - 30.21 0 None
2018-07-22 10:00 56 56 - 99 40° 2 - - 30.21 0 None
2018-07-22 09:00 56 56 - 98 120° 2 - - 30.20 0 None
2018-07-22 08:00 56 56 - 98 120° 3 - - 30.20 0 None
2018-07-22 07:00 56 56 - 99 110° 2 - - 30.20 0 None
2018-07-22 06:00 56 56 - 99 20° 1 - - 30.20 0 None
2018-07-22 05:00 57 56 - 98 180° 3 - - 30.20 0 None
2018-07-22 04:00 56 56 - 98 210° 2 - - 30.20 0 None
2018-07-22 03:00 56 55 - 96 330° 3 - - 30.18 0 None
2018-07-22 02:00 58 56 - 94 290° 5 - - 30.17 0 None
2018-07-22 01:00 61 59 - 92 300° 3 - - 30.17 0 None
2018-07-22 00:00 63 60 - 89 290° 3 - - 30.15 0 None
2018-07-21 23:00 68 63 - 83 180° 1 - - 30.14 0 None
2018-07-21 22:00 70 63 - 79 190° 5 - - 30.14 0 None
2018-07-21 21:00 71 64 76 78 180° 3 - - 30.13 0 None
2018-07-21 20:00 69 61 - 76 240° 3 - - 30.14 0 None
2018-07-21 19:00 69 62 - 78 210° 5 - - 30.14 0 None
2018-07-21 18:00 66 61 - 85 150° 3 - - 30.14 0 None
2018-07-21 17:00 63 60 - 92 130° 5 - - 30.15 0 None

Support USWX by starting your Amazon purchase here.